createdAt,value
2016-12-28T00:00:44.233Z,1025.64
2016-12-28T00:01:44.247Z,1025.67
2016-12-28T00:02:44.262Z,1025.64
2016-12-28T00:03:44.279Z,1025.66
2016-12-28T00:04:44.292Z,1025.73
2016-12-28T00:05:44.301Z,1025.74
2016-12-28T00:06:44.319Z,1025.79
2016-12-28T00:07:44.331Z,1025.78
2016-12-28T00:08:44.350Z,1025.76
2016-12-28T00:09:44.363Z,1025.72
2016-12-28T00:10:44.377Z,1025.75
2016-12-28T00:11:44.389Z,1025.74
2016-12-28T00:12:44.407Z,1025.73
2016-12-28T00:13:44.417Z,1025.73
2016-12-28T00:14:44.434Z,1025.78
2016-12-28T00:15:44.450Z,1025.77
2016-12-28T00:16:44.464Z,1025.78
2016-12-28T00:17:44.476Z,1025.87
2016-12-28T00:18:44.486Z,1025.89
2016-12-28T00:19:44.505Z,1025.89
2016-12-28T00:20:44.519Z,1025.85
2016-12-28T00:21:44.537Z,1025.93
2016-12-28T00:22:44.548Z,1025.94
2016-12-28T00:23:44.560Z,1025.91
2016-12-28T00:24:44.578Z,1025.87
2016-12-28T00:25:44.592Z,1025.81
2016-12-28T00:26:44.602Z,1025.82
2016-12-28T00:27:44.622Z,1025.81
2016-12-28T00:28:44.636Z,1025.83
2016-12-28T00:29:44.649Z,1025.83
2016-12-28T00:30:44.661Z,1025.82
2016-12-28T00:31:44.680Z,1025.87
2016-12-28T00:32:44.694Z,1025.82
2016-12-28T00:33:44.705Z,1025.83
2016-12-28T00:34:44.717Z,1025.88
2016-12-28T00:35:44.737Z,1025.89
2016-12-28T00:36:44.750Z,1025.92
2016-12-28T00:37:44.761Z,1025.92
2016-12-28T00:38:44.781Z,1025.9
2016-12-28T00:39:44.794Z,1025.87
2016-12-28T00:40:44.803Z,1025.92
2016-12-28T00:41:44.822Z,1025.88
2016-12-28T00:42:44.837Z,1025.9
2016-12-28T00:43:44.854Z,1025.9
2016-12-28T00:44:44.867Z,1025.85
2016-12-28T00:45:44.880Z,1025.85
2016-12-28T00:46:44.895Z,1025.87
2016-12-28T00:47:44.911Z,1025.83
2016-12-28T00:48:44.925Z,1025.82
2016-12-28T00:49:44.937Z,1025.8
2016-12-28T00:50:44.952Z,1025.81
2016-12-28T00:51:44.969Z,1025.81
2016-12-28T00:52:44.982Z,1025.81
2016-12-28T00:53:44.996Z,1025.82
2016-12-28T00:54:45.011Z,1025.81
2016-12-28T00:55:45.022Z,1025.83
2016-12-28T00:56:45.040Z,1025.85
2016-12-28T00:57:45.054Z,1025.82
2016-12-28T00:58:45.071Z,1025.86
2016-12-28T00:59:45.082Z,1025.9
2016-12-28T01:00:45.094Z,1025.96
2016-12-28T01:01:45.115Z,1025.95
2016-12-28T01:02:45.126Z,1025.88
2016-12-28T01:03:45.140Z,1025.91
2016-12-28T01:04:45.154Z,1025.9
2016-12-28T01:05:45.168Z,1025.91
2016-12-28T01:06:45.183Z,1025.94
2016-12-28T01:07:45.199Z,1025.92
2016-12-28T01:08:45.213Z,1025.91
2016-12-28T01:09:45.231Z,1025.93
2016-12-28T01:10:45.240Z,1025.88
2016-12-28T01:11:45.258Z,1025.9
2016-12-28T01:12:45.271Z,1025.86
2016-12-28T01:13:45.287Z,1025.86
2016-12-28T01:14:45.298Z,1025.86
2016-12-28T01:15:45.316Z,1025.82
2016-12-28T01:16:45.330Z,1025.87
2016-12-28T01:17:45.345Z,1025.87
2016-12-28T01:18:45.359Z,1025.84
2016-12-28T01:19:45.372Z,1025.9
2016-12-28T01:20:45.386Z,1025.94
2016-12-28T01:21:45.399Z,1026.01
2016-12-28T01:22:45.418Z,1025.99
2016-12-28T01:23:45.433Z,1025.97
2016-12-28T01:24:45.441Z,1026.05
2016-12-28T01:25:45.459Z,1026.04
2016-12-28T01:26:45.475Z,1026.02
2016-12-28T01:27:45.492Z,1026
2016-12-28T01:28:45.504Z,1026.02
2016-12-28T01:29:45.522Z,1026.01
2016-12-28T01:30:45.534Z,1025.99
2016-12-28T01:31:45.545Z,1026.03
2016-12-28T01:32:45.563Z,1026.09
2016-12-28T01:33:45.577Z,1026.05
2016-12-28T01:34:45.596Z,1026.08
2016-12-28T01:35:45.606Z,1026
2016-12-28T01:36:45.617Z,1025.99
2016-12-28T01:37:45.637Z,1025.89
2016-12-28T01:38:45.649Z,1025.88
2016-12-28T01:39:45.664Z,1025.85
2016-12-28T01:40:45.680Z,1025.79
2016-12-28T01:41:45.690Z,1025.86
2016-12-28T01:42:45.703Z,1025.83
2016-12-28T01:43:45.722Z,1025.77
2016-12-28T01:44:45.736Z,1025.77
2016-12-28T01:45:45.749Z,1025.79
2016-12-28T01:46:45.766Z,1025.74
2016-12-28T01:47:45.775Z,1025.75
2016-12-28T01:48:45.795Z,1025.68
2016-12-28T01:49:45.809Z,1025.72
2016-12-28T01:50:45.819Z,1025.74
2016-12-28T01:51:45.839Z,1025.71
2016-12-28T01:52:45.852Z,1025.76
2016-12-28T01:53:45.868Z,1025.72
2016-12-28T01:54:45.879Z,1025.7
2016-12-28T01:55:45.899Z,1025.67
2016-12-28T01:56:45.910Z,1025.67
2016-12-28T01:57:45.924Z,1025.64
2016-12-28T01:58:45.939Z,1025.7
2016-12-28T01:59:45.952Z,1025.69
2016-12-28T02:00:45.970Z,1025.66
2016-12-28T02:01:45.982Z,1025.67
2016-12-28T02:02:45.997Z,1025.67
2016-12-28T02:03:46.012Z,1025.64
2016-12-28T02:04:46.027Z,1025.67
2016-12-28T02:05:46.038Z,1025.69
2016-12-28T02:06:46.053Z,1025.69
2016-12-28T02:07:46.068Z,1025.69
2016-12-28T02:08:46.081Z,1025.7
2016-12-28T02:09:46.095Z,1025.58
2016-12-28T02:10:46.111Z,1025.66
2016-12-28T02:11:46.125Z,1025.61
2016-12-28T02:12:46.142Z,1025.59
2016-12-28T02:13:46.151Z,1025.6
2016-12-28T02:14:46.170Z,1025.62
2016-12-28T02:15:46.182Z,1025.62
2016-12-28T02:16:46.200Z,1025.65
2016-12-28T02:17:46.230Z,1025.67
2016-12-28T02:18:46.226Z,1025.66
2016-12-28T02:19:46.243Z,1025.7
2016-12-28T02:20:46.257Z,1025.72
2016-12-28T02:21:46.266Z,1025.68
2016-12-28T02:22:46.286Z,1025.65
2016-12-28T02:23:46.295Z,1025.67
2016-12-28T02:24:46.315Z,1025.65
2016-12-28T02:25:46.328Z,1025.64
2016-12-28T02:26:46.341Z,1025.61
2016-12-28T02:27:46.356Z,1025.61
2016-12-28T02:28:46.371Z,1025.63
2016-12-28T02:29:46.382Z,1025.68
2016-12-28T02:30:46.400Z,1025.67
2016-12-28T02:31:46.414Z,1025.7
2016-12-28T02:32:46.431Z,1025.64
2016-12-28T02:33:46.442Z,1025.63
2016-12-28T02:34:46.455Z,1025.62
2016-12-28T02:35:46.469Z,1025.68
2016-12-28T02:36:46.482Z,1025.67
2016-12-28T02:37:46.495Z,1025.66
2016-12-28T02:38:46.514Z,1025.65
2016-12-28T02:39:46.528Z,1025.69
2016-12-28T02:40:46.542Z,1025.63
2016-12-28T02:41:46.557Z,1025.66
2016-12-28T02:42:46.571Z,1025.65
2016-12-28T02:43:46.580Z,1025.69
2016-12-28T02:44:46.599Z,1025.65
2016-12-28T02:45:46.610Z,1025.63
2016-12-28T02:46:46.626Z,1025.59
2016-12-28T02:47:46.638Z,1025.63
2016-12-28T02:48:46.654Z,1025.59
2016-12-28T02:49:46.668Z,1025.58
2016-12-28T02:50:46.681Z,1025.53
2016-12-28T02:51:46.694Z,1025.48
2016-12-28T02:52:46.710Z,1025.48
2016-12-28T02:53:46.726Z,1025.44
2016-12-28T02:54:46.743Z,1025.5
2016-12-28T02:55:46.755Z,1025.49
2016-12-28T02:56:46.765Z,1025.44
2016-12-28T02:57:46.783Z,1025.49
2016-12-28T02:58:46.796Z,1025.5
2016-12-28T02:59:46.811Z,1025.53
2016-12-28T03:00:46.828Z,1025.49
2016-12-28T03:01:46.841Z,1025.43
2016-12-28T03:02:46.853Z,1025.5
2016-12-28T03:03:46.871Z,1025.51
2016-12-28T03:04:46.883Z,1025.45
2016-12-28T03:05:46.899Z,1025.44
2016-12-28T03:06:46.913Z,1025.41
2016-12-28T03:07:46.926Z,1025.42
2016-12-28T03:08:46.944Z,1025.37
2016-12-28T03:09:46.955Z,1025.37
2016-12-28T03:10:46.966Z,1025.37
2016-12-28T03:11:46.981Z,1025.4
2016-12-28T03:12:46.997Z,1025.36
2016-12-28T03:13:47.013Z,1025.36
2016-12-28T03:14:47.026Z,1025.39
2016-12-28T03:15:47.036Z,1025.34
2016-12-28T03:16:47.053Z,1025.29
2016-12-28T03:17:47.069Z,1025.3
2016-12-28T03:18:47.079Z,1025.27
2016-12-28T03:19:47.098Z,1025.27
2016-12-28T03:20:47.112Z,1025.31
2016-12-28T03:21:47.123Z,1025.25
2016-12-28T03:22:47.142Z,1025.31
2016-12-28T03:23:47.154Z,1025.27
2016-12-28T03:24:47.171Z,1025.29
2016-12-28T03:25:47.182Z,1025.32
2016-12-28T03:26:47.197Z,1025.36
2016-12-28T03:27:47.213Z,1025.36
2016-12-28T03:28:47.225Z,1025.32
2016-12-28T03:29:47.240Z,1025.31
2016-12-28T03:30:47.255Z,1025.25
2016-12-28T03:31:47.271Z,1025.3
2016-12-28T03:32:47.285Z,1025.25
2016-12-28T03:33:47.298Z,1025.27
2016-12-28T03:34:47.311Z,1025.24
2016-12-28T03:35:47.326Z,1025.22
2016-12-28T03:36:47.341Z,1025.18
2016-12-28T03:37:47.354Z,1025.26
2016-12-28T03:38:47.369Z,1025.25
2016-12-28T03:39:47.381Z,1025.24
2016-12-28T03:40:47.398Z,1025.2
2016-12-28T03:41:47.412Z,1025.18
2016-12-28T03:42:47.429Z,1025.12
2016-12-28T03:43:47.440Z,1025.15
2016-12-28T03:44:47.453Z,1025.09
2016-12-28T03:45:47.473Z,1025.1
2016-12-28T03:46:47.483Z,1025.13
2016-12-28T03:47:47.499Z,1025.17
2016-12-28T03:48:47.516Z,1025.16
2016-12-28T03:49:47.529Z,1025.2
2016-12-28T03:50:47.544Z,1025.2
2016-12-28T03:51:47.557Z,1025.2
2016-12-28T03:52:47.569Z,1025.26
2016-12-28T03:53:47.590Z,1025.3
2016-12-28T03:54:47.599Z,1025.32
2016-12-28T03:55:47.614Z,1025.38
2016-12-28T03:56:47.631Z,1025.41
2016-12-28T03:57:47.644Z,1025.44
2016-12-28T03:58:47.662Z,1025.49
2016-12-28T03:59:47.674Z,1025.48
2016-12-28T04:01:47.700Z,1025.57
2016-12-28T04:02:47.718Z,1025.63
2016-12-28T04:03:47.729Z,1025.6
2016-12-28T04:04:47.745Z,1025.61
2016-12-28T04:05:47.760Z,1025.54
2016-12-28T04:06:47.774Z,1025.57
2016-12-28T04:07:47.788Z,1025.52
2016-12-28T04:08:47.804Z,1025.55
2016-12-28T04:09:47.819Z,1025.57
2016-12-28T04:10:47.832Z,1025.52
2016-12-28T04:11:47.841Z,1025.49
2016-12-28T04:12:47.863Z,1025.48
2016-12-28T04:13:47.874Z,1025.51
2016-12-28T04:14:47.892Z,1025.56
2016-12-28T04:15:47.905Z,1025.53
2016-12-28T04:16:47.917Z,1025.58
2016-12-28T04:17:47.933Z,1025.53
2016-12-28T04:18:47.947Z,1025.56
2016-12-28T04:19:47.962Z,1025.58
2016-12-28T04:20:47.978Z,1025.61
2016-12-28T04:21:47.987Z,1025.6
2016-12-28T04:22:48.007Z,1025.58
2016-12-28T04:23:48.021Z,1025.6
2016-12-28T04:24:48.031Z,1025.61
2016-12-28T04:25:48.048Z,1025.6
2016-12-28T04:26:48.064Z,1025.63
2016-12-28T04:27:48.076Z,1025.58
2016-12-28T04:28:48.095Z,1025.64
2016-12-28T04:29:48.103Z,1025.57
2016-12-28T04:30:48.123Z,1025.55
2016-12-28T04:31:48.136Z,1025.59
2016-12-28T04:32:48.150Z,1025.55
2016-12-28T04:33:48.165Z,1025.54
2016-12-28T04:34:48.179Z,1025.56
2016-12-28T04:35:48.195Z,1025.53
2016-12-28T04:36:48.211Z,1025.59
2016-12-28T04:37:48.226Z,1025.58
2016-12-28T04:38:48.237Z,1025.66
2016-12-28T04:39:48.252Z,1025.58
2016-12-28T04:40:48.269Z,1025.61
2016-12-28T04:41:48.278Z,1025.67
2016-12-28T04:42:48.299Z,1025.64
2016-12-28T04:43:48.310Z,1025.65
2016-12-28T04:44:48.325Z,1025.62
2016-12-28T04:45:48.339Z,1025.63
2016-12-28T04:46:48.354Z,1025.61
2016-12-28T04:47:48.365Z,1025.67
2016-12-28T04:48:48.382Z,1025.68
2016-12-28T04:49:48.394Z,1025.68
2016-12-28T04:50:48.411Z,1025.65
2016-12-28T04:51:48.423Z,1025.69
2016-12-28T04:52:48.439Z,1025.71
2016-12-28T04:53:48.457Z,1025.71
2016-12-28T04:54:48.467Z,1025.71
2016-12-28T04:55:48.486Z,1025.72
2016-12-28T04:56:48.498Z,1025.82
2016-12-28T04:57:48.513Z,1025.84
2016-12-28T04:58:48.527Z,1025.82
2016-12-28T04:59:48.543Z,1025.84
2016-12-28T05:00:48.556Z,1025.86
2016-12-28T05:01:48.569Z,1025.83
2016-12-28T05:02:48.583Z,1025.81
2016-12-28T05:03:48.599Z,1025.8
2016-12-28T05:04:48.616Z,1025.8
2016-12-28T05:05:48.626Z,1025.8
2016-12-28T05:06:48.642Z,1025.8
2016-12-28T05:07:48.656Z,1025.73
2016-12-28T05:08:48.668Z,1025.72
2016-12-28T05:09:48.685Z,1025.71
2016-12-28T05:10:48.698Z,1025.71
2016-12-28T05:11:48.712Z,1025.75
2016-12-28T05:12:48.728Z,1025.75
2016-12-28T05:13:48.743Z,1025.76
2016-12-28T05:14:48.758Z,1025.82
2016-12-28T05:15:48.776Z,1025.86
2016-12-28T05:16:48.786Z,1025.86
2016-12-28T05:17:48.802Z,1025.86
2016-12-28T05:18:48.817Z,1025.84
2016-12-28T05:19:48.836Z,1025.82
2016-12-28T05:20:48.850Z,1025.79
2016-12-28T05:21:48.862Z,1025.79
2016-12-28T05:22:48.879Z,1025.81
2016-12-28T05:23:48.893Z,1025.77
2016-12-28T05:24:48.909Z,1025.77
2016-12-28T05:25:48.919Z,1025.77
2016-12-28T05:26:48.936Z,1025.77
2016-12-28T05:27:48.950Z,1025.75
2016-12-28T05:28:48.965Z,1025.74
2016-12-28T05:29:48.980Z,1025.74
2016-12-28T05:30:48.993Z,1025.77
2016-12-28T05:31:49.007Z,1025.78
2016-12-28T05:32:49.023Z,1025.72
2016-12-28T05:33:49.036Z,1025.8
2016-12-28T05:34:49.054Z,1025.83
2016-12-28T05:35:49.068Z,1025.78
2016-12-28T05:36:49.080Z,1025.85
2016-12-28T05:37:49.093Z,1025.82
2016-12-28T05:38:49.113Z,1025.84
2016-12-28T05:39:49.127Z,1025.82
2016-12-28T05:40:49.141Z,1025.83
2016-12-28T05:41:49.154Z,1025.85
2016-12-28T05:42:49.170Z,1025.89
2016-12-28T05:43:49.185Z,1025.89
2016-12-28T05:44:49.200Z,1025.93
2016-12-28T05:45:49.211Z,1025.91
2016-12-28T05:46:49.229Z,1025.94
2016-12-28T05:47:49.241Z,1025.99
2016-12-28T05:48:49.255Z,1025.95
2016-12-28T05:49:49.275Z,1025.91
2016-12-28T05:50:49.285Z,1025.84
2016-12-28T05:51:49.299Z,1025.77
2016-12-28T05:52:49.319Z,1025.72
2016-12-28T05:53:49.329Z,1025.68
2016-12-28T05:54:49.349Z,1025.74
2016-12-28T05:55:49.362Z,1025.7
2016-12-28T05:56:49.378Z,1025.73
2016-12-28T05:57:49.393Z,1025.74
2016-12-28T05:58:49.406Z,1025.74
2016-12-28T05:59:49.422Z,1025.76
2016-12-28T06:00:49.437Z,1025.76
2016-12-28T06:01:49.452Z,1025.76
2016-12-28T06:02:49.463Z,1025.72
2016-12-28T06:03:49.481Z,1025.73
2016-12-28T06:04:49.494Z,1025.71
2016-12-28T06:05:49.511Z,1025.7
2016-12-28T06:06:49.527Z,1025.68
2016-12-28T06:07:49.541Z,1025.68
2016-12-28T06:08:49.555Z,1025.64
2016-12-28T06:09:49.570Z,1025.6
2016-12-28T06:10:49.582Z,1025.62
2016-12-28T06:11:49.598Z,1025.67
2016-12-28T06:12:49.615Z,1025.66
2016-12-28T06:13:49.629Z,1025.66
2016-12-28T06:14:49.645Z,1025.66
2016-12-28T06:15:49.656Z,1025.64
2016-12-28T06:16:49.669Z,1025.6
2016-12-28T06:17:49.687Z,1025.65
2016-12-28T06:18:49.700Z,1025.64
2016-12-28T06:19:49.715Z,1025.59
2016-12-28T06:20:49.730Z,1025.62
2016-12-28T06:21:49.746Z,1025.66
2016-12-28T06:22:49.756Z,1025.65
2016-12-28T06:23:49.774Z,1025.66
2016-12-28T06:24:49.787Z,1025.67
2016-12-28T06:25:49.801Z,1025.64
2016-12-28T06:26:49.818Z,1025.65
2016-12-28T06:27:49.830Z,1025.68
2016-12-28T06:28:49.846Z,1025.7
2016-12-28T06:29:49.861Z,1025.72
2016-12-28T06:30:49.875Z,1025.74
2016-12-28T06:31:49.893Z,1025.68
2016-12-28T06:32:49.906Z,1025.71
2016-12-28T06:33:49.915Z,1025.71
2016-12-28T06:34:49.936Z,1025.71
2016-12-28T06:35:49.946Z,1025.72
2016-12-28T06:36:49.961Z,1025.71
2016-12-28T06:37:49.978Z,1025.71
2016-12-28T06:38:49.990Z,1025.77
2016-12-28T06:39:50.003Z,1025.78
2016-12-28T06:40:50.018Z,1025.77
2016-12-28T06:41:50.031Z,1025.76
2016-12-28T06:42:50.047Z,1025.81
2016-12-28T06:43:50.061Z,1025.76
2016-12-28T06:44:50.078Z,1025.75
2016-12-28T06:45:50.090Z,1025.79
2016-12-28T06:46:50.103Z,1025.81
2016-12-28T06:47:50.117Z,1025.79
2016-12-28T06:48:50.137Z,1025.78
2016-12-28T06:49:50.146Z,1025.82
2016-12-28T06:50:50.162Z,1025.83
2016-12-28T06:51:50.176Z,1025.79
2016-12-28T06:52:50.193Z,1025.8
2016-12-28T06:53:50.206Z,1025.85
2016-12-28T06:54:50.221Z,1025.82
2016-12-28T06:55:50.232Z,1025.8
2016-12-28T06:56:50.248Z,1025.82
2016-12-28T06:57:50.259Z,1025.85
2016-12-28T06:58:50.274Z,1025.88
2016-12-28T06:59:50.292Z,1025.86
2016-12-28T07:00:50.301Z,1025.91
2016-12-28T07:01:50.320Z,1025.93
2016-12-28T07:02:50.334Z,1026.01
2016-12-28T07:03:50.347Z,1026.09
2016-12-28T07:04:50.364Z,1026.19
2016-12-28T07:05:50.375Z,1026.24
2016-12-28T07:06:50.387Z,1026.29
2016-12-28T07:07:50.405Z,1026.3
2016-12-28T07:08:50.416Z,1026.33
2016-12-28T07:09:50.431Z,1026.36
2016-12-28T07:10:50.449Z,1026.35
2016-12-28T07:11:50.459Z,1026.35
2016-12-28T07:12:50.483Z,1026.33
2016-12-28T07:13:50.493Z,1026.35
2016-12-28T07:14:50.505Z,1026.3
2016-12-28T07:15:50.516Z,1026.33
2016-12-28T07:16:50.535Z,1026.27
2016-12-28T07:17:50.548Z,1026.26
2016-12-28T07:18:50.563Z,1026.26
2016-12-28T07:19:50.571Z,1026.25
2016-12-28T07:20:50.592Z,1026.27
2016-12-28T07:21:50.605Z,1026.3
2016-12-28T07:22:50.616Z,1026.34
2016-12-28T07:23:50.633Z,1026.44
2016-12-28T07:24:50.643Z,1026.37
2016-12-28T07:25:50.658Z,1026.38
2016-12-28T07:26:50.673Z,1026.38
2016-12-28T07:27:50.686Z,1026.31
2016-12-28T07:28:50.702Z,1026.36
2016-12-28T07:29:50.716Z,1026.38
2016-12-28T07:30:50.731Z,1026.41
2016-12-28T07:31:50.742Z,1026.43
2016-12-28T07:32:50.759Z,1026.48
2016-12-28T07:33:50.772Z,1026.5
2016-12-28T07:34:50.785Z,1026.49
2016-12-28T07:35:50.806Z,1026.59
2016-12-28T07:36:50.816Z,1026.57
2016-12-28T07:37:50.830Z,1026.6
2016-12-28T07:38:50.846Z,1026.6
2016-12-28T07:39:50.858Z,1026.61
2016-12-28T07:40:50.874Z,1026.64
2016-12-28T07:41:50.891Z,1026.7
2016-12-28T07:42:50.902Z,1026.73
2016-12-28T07:43:50.917Z,1026.71
2016-12-28T07:44:50.930Z,1026.72
2016-12-28T07:45:50.947Z,1026.7
2016-12-28T07:46:50.962Z,1026.73
2016-12-28T07:47:50.976Z,1026.67
2016-12-28T07:48:50.989Z,1026.69
2016-12-28T07:49:51.005Z,1026.67
2016-12-28T07:50:51.016Z,1026.62
2016-12-28T07:51:51.033Z,1026.67
2016-12-28T07:52:51.043Z,1026.65
2016-12-28T07:53:51.058Z,1026.66
2016-12-28T07:54:51.070Z,1026.7
2016-12-28T07:55:51.084Z,1026.72
2016-12-28T07:56:51.100Z,1026.73
2016-12-28T07:57:51.113Z,1026.77
2016-12-28T07:58:51.132Z,1026.8
2016-12-28T07:59:51.141Z,1026.79
2016-12-28T08:00:51.157Z,1026.85
2016-12-28T08:01:51.172Z,1026.79
2016-12-28T08:02:51.184Z,1026.77
2016-12-28T08:03:51.201Z,1026.74
2016-12-28T08:04:51.212Z,1026.72
2016-12-28T08:05:51.231Z,1026.72
2016-12-28T08:06:51.240Z,1026.73
2016-12-28T08:07:51.254Z,1026.72
2016-12-28T08:08:51.273Z,1026.78
2016-12-28T08:09:51.285Z,1026.77
2016-12-28T08:10:51.299Z,1026.72
2016-12-28T08:11:51.315Z,1026.73
2016-12-28T08:12:51.325Z,1026.71
2016-12-28T08:13:51.341Z,1026.73
2016-12-28T08:14:51.357Z,1026.75
2016-12-28T08:15:51.368Z,1026.74
2016-12-28T08:16:51.388Z,1026.71
2016-12-28T08:17:51.397Z,1026.7
2016-12-28T08:18:51.410Z,1026.67
2016-12-28T08:19:51.427Z,1026.68
2016-12-28T08:20:51.439Z,1026.7
2016-12-28T08:21:51.453Z,1026.72
2016-12-28T08:22:51.468Z,1026.75
2016-12-28T08:23:51.486Z,1026.75
2016-12-28T08:24:51.500Z,1026.78
2016-12-28T08:25:51.511Z,1026.8
2016-12-28T08:26:51.527Z,1026.74
2016-12-28T08:27:51.543Z,1026.79
2016-12-28T08:28:51.553Z,1026.78
2016-12-28T08:29:51.570Z,1026.72
2016-12-28T08:30:51.584Z,1026.73
2016-12-28T08:31:51.596Z,1026.82
2016-12-28T08:32:51.612Z,1026.84
2016-12-28T08:33:51.675Z,1026.81
2016-12-28T08:34:51.641Z,1026.77
2016-12-28T08:35:51.652Z,1026.69
2016-12-28T08:36:51.666Z,1026.71
2016-12-28T08:37:51.681Z,1026.74
2016-12-28T08:38:51.696Z,1026.76
2016-12-28T08:39:51.708Z,1026.77
2016-12-28T08:40:51.718Z,1026.73
2016-12-28T08:41:51.738Z,1026.72
2016-12-28T08:42:51.748Z,1026.65
2016-12-28T08:43:51.763Z,1026.66
2016-12-28T08:44:51.777Z,1026.61
2016-12-28T08:45:51.791Z,1026.59
2016-12-28T08:46:51.806Z,1026.65
2016-12-28T08:47:51.820Z,1026.61
2016-12-28T08:48:51.833Z,1026.62
2016-12-28T08:49:51.850Z,1026.66
2016-12-28T08:50:51.864Z,1026.6
2016-12-28T08:51:51.874Z,1026.62
2016-12-28T08:52:51.894Z,1026.66
2016-12-28T08:53:51.907Z,1026.7
2016-12-28T08:54:51.919Z,1026.7
2016-12-28T08:55:51.935Z,1026.7
2016-12-28T08:56:51.948Z,1026.71
2016-12-28T08:57:51.962Z,1026.69
2016-12-28T08:58:51.976Z,1026.76
2016-12-28T08:59:51.991Z,1026.74
2016-12-28T09:00:52.007Z,1026.77
2016-12-28T09:01:52.020Z,1026.77
2016-12-28T09:02:52.033Z,1026.79
2016-12-28T09:03:52.049Z,1026.77
2016-12-28T09:04:52.063Z,1026.82
2016-12-28T09:05:52.075Z,1026.8
2016-12-28T09:06:52.088Z,1026.83
2016-12-28T09:07:52.105Z,1026.85
2016-12-28T09:08:52.117Z,1026.87
2016-12-28T09:09:52.134Z,1026.84
2016-12-28T09:10:52.144Z,1026.86
2016-12-28T09:11:52.162Z,1026.85
2016-12-28T09:12:52.173Z,1026.82
2016-12-28T09:13:52.189Z,1026.85
2016-12-28T09:14:52.198Z,1026.84
2016-12-28T09:15:52.216Z,1026.91
2016-12-28T09:16:52.229Z,1026.9
2016-12-28T09:17:52.246Z,1026.92
2016-12-28T09:18:52.262Z,1026.93
2016-12-28T09:19:52.271Z,1026.95
2016-12-28T09:20:52.290Z,1026.96
2016-12-28T09:21:52.301Z,1026.94
2016-12-28T09:22:52.312Z,1026.94
2016-12-28T09:23:52.330Z,1026.95
2016-12-28T09:24:52.342Z,1026.89
2016-12-28T09:25:52.360Z,1026.87
2016-12-28T09:26:52.372Z,1026.84
2016-12-28T09:27:52.387Z,1026.8
2016-12-28T09:28:52.401Z,1026.83
2016-12-28T09:29:52.414Z,1026.83
2016-12-28T09:30:52.426Z,1026.83
2016-12-28T09:31:52.443Z,1026.84
2016-12-28T09:32:52.456Z,1026.89
2016-12-28T09:33:52.474Z,1026.93
2016-12-28T09:34:52.488Z,1026.95
2016-12-28T09:35:52.502Z,1026.94
2016-12-28T09:36:52.515Z,1026.93
2016-12-28T09:37:52.531Z,1026.92
2016-12-28T09:38:52.545Z,1026.91
2016-12-28T09:39:52.554Z,1026.88
2016-12-28T09:40:52.573Z,1026.89
2016-12-28T09:41:52.586Z,1026.9
2016-12-28T09:42:52.599Z,1026.95
2016-12-28T09:43:52.613Z,1026.95
2016-12-28T09:44:52.632Z,1026.93
2016-12-28T09:45:52.645Z,1026.93
2016-12-28T09:46:52.659Z,1026.92
2016-12-28T09:47:52.668Z,1026.98
2016-12-28T09:48:52.682Z,1026.96
2016-12-28T09:49:52.697Z,1026.96
2016-12-28T09:50:52.715Z,1026.96
2016-12-28T09:51:52.728Z,1026.99
2016-12-28T09:52:52.741Z,1026.97
2016-12-28T09:53:52.753Z,1026.99
2016-12-28T09:54:52.773Z,1027.01
2016-12-28T09:55:52.787Z,1027
2016-12-28T09:56:52.796Z,1027.06
2016-12-28T09:57:52.815Z,1027.05
2016-12-28T09:58:52.881Z,1027.03
2016-12-28T09:59:52.838Z,1027
2016-12-28T10:00:52.859Z,1026.99
2016-12-28T10:01:52.873Z,1027.01
2016-12-28T10:02:52.886Z,1027.01
2016-12-28T10:03:52.902Z,1026.98
2016-12-28T10:04:52.915Z,1027
2016-12-28T10:05:52.929Z,1027.02
2016-12-28T10:06:52.943Z,1027
2016-12-28T10:07:52.957Z,1027.04
2016-12-28T10:08:52.976Z,1027.05
2016-12-28T10:09:52.986Z,1027.09
2016-12-28T10:10:52.999Z,1026.99
2016-12-28T10:11:53.018Z,1027.01
2016-12-28T10:12:53.029Z,1027
2016-12-28T10:13:53.046Z,1026.97
2016-12-28T10:14:53.061Z,1026.99
2016-12-28T10:15:53.071Z,1026.96
2016-12-28T10:16:53.088Z,1026.99
2016-12-28T10:17:53.101Z,1026.99
2016-12-28T10:18:53.118Z,1026.99
2016-12-28T10:19:53.133Z,1027.01
2016-12-28T10:20:53.146Z,1026.95
2016-12-28T10:21:53.161Z,1026.91
2016-12-28T10:22:53.174Z,1026.93
2016-12-28T10:23:53.191Z,1026.85
2016-12-28T10:24:53.206Z,1026.85
2016-12-28T10:25:53.217Z,1026.89
2016-12-28T10:26:53.231Z,1026.84
2016-12-28T10:27:53.251Z,1026.84
2016-12-28T10:28:53.260Z,1026.85
2016-12-28T10:29:53.274Z,1026.81
2016-12-28T10:30:53.292Z,1026.8
2016-12-28T10:31:53.303Z,1026.78
2016-12-28T10:32:53.317Z,1026.78
2016-12-28T10:33:53.335Z,1026.76
2016-12-28T10:34:53.348Z,1026.76
2016-12-28T10:35:53.362Z,1026.75
2016-12-28T10:36:53.375Z,1026.69
2016-12-28T10:37:53.390Z,1026.69
2016-12-28T10:38:53.408Z,1026.69
2016-12-28T10:39:53.421Z,1026.74
2016-12-28T10:40:53.431Z,1026.78
2016-12-28T10:41:53.449Z,1026.78
2016-12-28T10:42:53.464Z,1026.77
2016-12-28T10:43:53.479Z,1026.74
2016-12-28T10:44:53.491Z,1026.74
2016-12-28T10:45:53.507Z,1026.73
2016-12-28T10:46:53.524Z,1026.72
2016-12-28T10:47:53.534Z,1026.75
2016-12-28T10:48:53.548Z,1026.71
2016-12-28T10:49:53.565Z,1026.69
2016-12-28T10:50:53.577Z,1026.61
2016-12-28T10:51:53.592Z,1026.61
2016-12-28T10:52:53.608Z,1026.66
2016-12-28T10:53:53.621Z,1026.68
2016-12-28T10:54:53.638Z,1026.7
2016-12-28T10:55:53.650Z,1026.73
2016-12-28T10:56:53.665Z,1026.69
2016-12-28T10:57:53.681Z,1026.74
2016-12-28T10:58:53.690Z,1026.75
2016-12-28T10:59:53.707Z,1026.74
2016-12-28T11:00:53.722Z,1026.67
2016-12-28T11:01:53.733Z,1026.7
2016-12-28T11:02:53.749Z,1026.68
2016-12-28T11:03:53.766Z,1026.69
2016-12-28T11:04:53.778Z,1026.74
2016-12-28T11:05:53.830Z,1026.74
2016-12-28T11:06:53.847Z,1026.73
2016-12-28T11:07:53.853Z,1026.74
2016-12-28T11:08:53.858Z,1026.71
2016-12-28T11:09:53.886Z,1026.73
2016-12-28T11:10:53.863Z,1026.72
2016-12-28T11:11:53.879Z,1026.67
2016-12-28T11:12:53.891Z,1026.71
2016-12-28T11:13:53.952Z,1026.67
2016-12-28T11:14:53.920Z,1026.7
2016-12-28T11:15:53.950Z,1026.68
2016-12-28T11:16:53.953Z,1026.69
2016-12-28T11:17:53.964Z,1026.66
2016-12-28T11:18:53.978Z,1026.64
2016-12-28T11:19:53.989Z,1026.65
2016-12-28T11:20:54.004Z,1026.65
2016-12-28T11:21:54.019Z,1026.64
2016-12-28T11:22:54.034Z,1026.67
2016-12-28T11:23:54.046Z,1026.63
2016-12-28T11:24:54.062Z,1026.66
2016-12-28T11:25:54.081Z,1026.6
2016-12-28T11:26:54.093Z,1026.64
2016-12-28T11:27:54.103Z,1026.58
2016-12-28T11:28:54.121Z,1026.59
2016-12-28T11:29:54.133Z,1026.58
2016-12-28T11:30:54.152Z,1026.58
2016-12-28T11:31:54.168Z,1026.52
2016-12-28T11:32:54.177Z,1026.54
2016-12-28T11:33:54.191Z,1026.57
2016-12-28T11:34:54.211Z,1026.55
2016-12-28T11:35:54.224Z,1026.57
2016-12-28T11:36:54.242Z,1026.56
2016-12-28T11:37:54.256Z,1026.54
2016-12-28T11:38:54.269Z,1026.57
2016-12-28T11:39:54.286Z,1026.5
2016-12-28T11:40:54.298Z,1026.53
2016-12-28T11:41:54.313Z,1026.53
2016-12-28T11:42:54.329Z,1026.53
2016-12-28T11:43:54.343Z,1026.56
2016-12-28T11:44:54.357Z,1026.54
2016-12-28T11:45:54.371Z,1026.5
2016-12-28T11:46:54.384Z,1026.56
2016-12-28T11:47:54.400Z,1026.55
2016-12-28T11:48:54.417Z,1026.59
2016-12-28T11:49:54.428Z,1026.51
2016-12-28T11:50:54.441Z,1026.51
2016-12-28T11:51:54.460Z,1026.51
2016-12-28T11:52:54.475Z,1026.48
2016-12-28T11:53:54.486Z,1026.53
2016-12-28T11:54:54.505Z,1026.45
2016-12-28T11:55:54.517Z,1026.45
2016-12-28T11:56:54.533Z,1026.47
2016-12-28T11:57:54.551Z,1026.47
2016-12-28T11:58:54.564Z,1026.5
2016-12-28T11:59:54.579Z,1026.43
2016-12-28T12:00:54.593Z,1026.41
2016-12-28T12:01:54.611Z,1026.45
2016-12-28T12:02:54.624Z,1026.45
2016-12-28T12:03:54.635Z,1026.48
2016-12-28T12:04:54.653Z,1026.46
2016-12-28T12:05:54.666Z,1026.43
2016-12-28T12:06:54.680Z,1026.36
2016-12-28T12:07:54.693Z,1026.39
2016-12-28T12:08:54.707Z,1026.34
2016-12-28T12:09:54.725Z,1026.37